createdAt,value
2019-05-26T00:01:34.381Z,99.90
2019-05-26T00:04:03.148Z,99.90
2019-05-26T00:06:32.377Z,99.90
2019-05-26T00:09:01.130Z,99.90
2019-05-26T00:11:29.897Z,99.90
2019-05-26T00:13:58.884Z,99.90
2019-05-26T00:16:27.978Z,99.90
2019-05-26T00:18:57.310Z,99.90
2019-05-26T00:21:26.653Z,99.90
2019-05-26T00:23:56.449Z,99.90
2019-05-26T00:26:25.925Z,99.90
2019-05-26T00:28:55.146Z,99.90
2019-05-26T00:31:24.144Z,99.90
2019-05-26T00:33:53.138Z,99.90
2019-05-26T00:36:22.369Z,99.90
2019-05-26T00:38:51.399Z,99.90
2019-05-26T00:41:20.449Z,99.90
2019-05-26T00:43:49.894Z,99.90
2019-05-26T00:46:19.201Z,99.90
2019-05-26T00:48:48.488Z,99.90
2019-05-26T00:51:17.546Z,99.90
2019-05-26T00:53:46.850Z,99.90
2019-05-26T00:56:15.670Z,99.90
2019-05-26T00:58:44.505Z,99.90
2019-05-26T01:01:14.294Z,99.90
2019-05-26T01:03:44.828Z,99.90
2019-05-26T01:06:13.582Z,99.90
2019-05-26T01:08:42.342Z,99.90
2019-05-26T01:11:11.098Z,99.90
2019-05-26T01:13:39.846Z,99.90
2019-05-26T01:16:09.178Z,99.90
2019-05-26T01:18:38.434Z,99.90
2019-05-26T01:21:07.457Z,99.90
2019-05-26T01:23:36.331Z,99.90
2019-05-26T01:26:05.189Z,99.90
2019-05-26T01:28:33.997Z,99.90
2019-05-26T01:31:03.550Z,99.90
2019-05-26T01:33:32.371Z,99.90
2019-05-26T01:36:01.621Z,99.90
2019-05-26T01:38:31.234Z,99.90
2019-05-26T01:40:59.969Z,99.90
2019-05-26T01:43:29.559Z,99.90
2019-05-26T01:45:58.598Z,99.90
2019-05-26T01:48:27.894Z,99.90
2019-05-26T01:50:56.611Z,99.90
2019-05-26T01:53:25.630Z,99.90
2019-05-26T01:55:54.715Z,99.90
2019-05-26T01:58:23.598Z,99.90
2019-05-26T02:00:52.854Z,99.90
2019-05-26T02:03:21.613Z,99.90
2019-05-26T02:05:50.630Z,99.90
2019-05-26T02:08:19.949Z,99.90
2019-05-26T02:10:50.215Z,99.90
2019-05-26T02:13:19.238Z,99.90
2019-05-26T02:15:48.450Z,99.90
2019-05-26T02:18:17.440Z,99.90
2019-05-26T02:20:46.430Z,99.90
2019-05-26T02:23:15.666Z,99.90
2019-05-26T02:25:45.172Z,99.90
2019-05-26T02:28:14.409Z,99.90
2019-05-26T02:30:43.632Z,99.90
2019-05-26T02:33:12.395Z,99.90
2019-05-26T02:35:41.516Z,99.90
2019-05-26T02:38:10.999Z,99.90
2019-05-26T02:40:39.763Z,99.90
2019-05-26T02:43:08.805Z,99.90
2019-05-26T02:45:38.305Z,99.90
2019-05-26T02:48:07.563Z,99.90
2019-05-26T02:50:36.831Z,99.90
2019-05-26T02:53:06.040Z,99.90
2019-05-26T02:55:35.120Z,99.90
2019-05-26T02:58:04.487Z,99.90
2019-05-26T03:00:44.096Z,99.90
2019-05-26T03:03:14.431Z,99.90
2019-05-26T03:05:45.247Z,99.90
2019-05-26T03:08:15.447Z,99.90
2019-05-26T03:10:44.758Z,99.90
2019-05-26T03:13:15.853Z,99.90
2019-05-26T03:15:46.579Z,99.90
2019-05-26T03:18:16.088Z,99.90
2019-05-26T03:20:45.022Z,99.90
2019-05-26T03:23:18.062Z,99.90
2019-05-26T03:25:47.015Z,99.90
2019-05-26T03:28:15.843Z,99.90
2019-05-26T03:30:45.465Z,99.90
2019-05-26T03:33:14.515Z,99.90
2019-05-26T03:35:43.499Z,99.90
2019-05-26T03:38:12.514Z,99.90
2019-05-26T03:40:41.821Z,99.90
2019-05-26T03:43:11.108Z,99.90
2019-05-26T03:46:20.716Z,99.90
2019-05-26T03:48:50.659Z,99.90
2019-05-26T03:51:19.848Z,99.90
2019-05-26T03:53:48.666Z,99.90
2019-05-26T03:56:17.454Z,99.90
2019-05-26T03:58:46.278Z,99.90
2019-05-26T04:01:15.897Z,99.90
2019-05-26T04:03:45.120Z,99.90
2019-05-26T04:06:13.870Z,99.90
2019-05-26T04:08:42.893Z,99.90
2019-05-26T04:11:11.823Z,99.90
2019-05-26T04:13:41.135Z,99.90
2019-05-26T04:16:10.258Z,99.90
2019-05-26T04:18:39.398Z,99.90
2019-05-26T04:21:08.418Z,99.90
2019-05-26T04:23:37.654Z,99.90
2019-05-26T04:26:08.200Z,99.90
2019-05-26T04:28:36.927Z,99.90
2019-05-26T04:31:05.922Z,99.90
2019-05-26T04:33:34.670Z,99.90
2019-05-26T04:36:03.426Z,99.90
2019-05-26T04:38:32.490Z,99.90
2019-05-26T04:41:01.571Z,99.90
2019-05-26T04:43:31.079Z,99.90
2019-05-26T04:46:00.091Z,99.90
2019-05-26T04:48:29.683Z,99.90
2019-05-26T04:50:58.760Z,99.90
2019-05-26T04:53:28.266Z,99.90
2019-05-26T04:55:57.019Z,99.90
2019-05-26T04:58:25.763Z,99.90
2019-05-26T05:00:55.034Z,99.90
2019-05-26T05:03:24.029Z,99.90
2019-05-26T05:05:53.020Z,99.90
2019-05-26T05:08:23.468Z,99.90
2019-05-26T05:10:52.477Z,99.90
2019-05-26T05:13:24.873Z,99.90
2019-05-26T05:15:53.419Z,99.90
2019-05-26T05:18:22.686Z,99.90
2019-05-26T05:20:51.430Z,99.90
2019-05-26T05:23:20.725Z,99.90
2019-05-26T05:25:50.262Z,99.90
2019-05-26T05:28:19.524Z,99.90
2019-05-26T05:30:48.592Z,99.90
2019-05-26T05:33:17.403Z,99.90
2019-05-26T05:35:46.715Z,99.90
2019-05-26T05:38:15.727Z,99.90
2019-05-26T05:40:58.432Z,99.90
2019-05-26T05:43:15.726Z,99.90
2019-05-26T05:45:44.987Z,99.90
2019-05-26T05:48:14.635Z,99.90
2019-05-26T05:50:43.889Z,99.90
2019-05-26T05:53:12.897Z,99.90
2019-05-26T05:55:41.936Z,99.90
2019-05-26T05:58:11.530Z,99.90
2019-05-26T06:00:40.590Z,99.90
2019-05-26T06:03:09.434Z,99.90
2019-05-26T06:05:38.947Z,99.90
2019-05-26T06:08:08.475Z,99.90
2019-05-26T06:10:37.845Z,99.90
2019-05-26T06:13:07.065Z,99.90
2019-05-26T06:15:36.082Z,99.90
2019-05-26T06:18:05.014Z,99.90
2019-05-26T06:20:34.328Z,99.90
2019-05-26T06:23:03.325Z,99.90
2019-05-26T06:25:32.069Z,99.90
2019-05-26T06:28:01.305Z,99.90
2019-05-26T06:30:30.367Z,99.90
2019-05-26T06:32:59.862Z,99.90
2019-05-26T06:35:32.470Z,99.90
2019-05-26T06:38:00.086Z,99.90
2019-05-26T06:40:29.193Z,99.90
2019-05-26T06:42:58.294Z,99.90
2019-05-26T06:45:28.690Z,99.90
2019-05-26T06:47:58.462Z,99.90
2019-05-26T06:50:27.458Z,99.90
2019-05-26T06:52:56.487Z,99.90
2019-05-26T06:55:25.315Z,99.90
2019-05-26T06:57:54.054Z,99.90
2019-05-26T07:00:23.096Z,99.90
2019-05-26T07:02:52.090Z,99.90
2019-05-26T07:05:21.191Z,99.90
2019-05-26T07:07:50.675Z,99.40
2019-05-26T07:10:19.722Z,99.30
2019-05-26T07:12:48.698Z,99.40
2019-05-26T07:15:18.078Z,99.40
2019-05-26T07:17:47.058Z,99.50
2019-05-26T07:20:16.450Z,98.10
2019-05-26T07:22:45.758Z,97.90
2019-05-26T07:25:14.889Z,95.70
2019-05-26T07:27:44.390Z,95.60
2019-05-26T07:30:13.525Z,95.70
2019-05-26T07:32:43.303Z,95.40
2019-05-26T07:35:12.129Z,95.30
2019-05-26T07:37:41.131Z,95.60
2019-05-26T07:40:09.951Z,97.00
2019-05-26T07:42:38.717Z,94.90
2019-05-26T07:45:08.480Z,95.20
2019-05-26T07:47:37.218Z,94.80
2019-05-26T07:50:06.489Z,95.20
2019-05-26T07:52:35.484Z,95.90
2019-05-26T07:55:04.474Z,96.20
2019-05-26T07:57:33.722Z,95.80
2019-05-26T08:00:03.097Z,95.90
2019-05-26T08:02:32.088Z,95.60
2019-05-26T08:05:01.106Z,96.10
2019-05-26T08:07:30.102Z,95.80
2019-05-26T08:09:59.341Z,95.90
2019-05-26T08:12:30.627Z,96.40
2019-05-26T08:14:59.058Z,96.30
2019-05-26T08:17:28.034Z,96.20
2019-05-26T08:19:57.039Z,97.30
2019-05-26T08:22:26.274Z,96.70
2019-05-26T08:24:55.079Z,97.00
2019-05-26T08:27:24.094Z,97.20
2019-05-26T08:29:55.367Z,96.40
2019-05-26T08:32:24.829Z,96.40
2019-05-26T08:34:53.591Z,96.70
2019-05-26T08:37:22.889Z,96.50
2019-05-26T08:39:51.651Z,96.30
2019-05-26T08:42:27.331Z,96.70
2019-05-26T08:44:51.656Z,96.90
2019-05-26T08:47:20.877Z,97.80
2019-05-26T08:49:50.392Z,96.70
2019-05-26T08:52:19.457Z,96.40
2019-05-26T08:54:49.716Z,96.00
2019-05-26T08:57:19.433Z,95.30
2019-05-26T08:59:48.653Z,95.60
2019-05-26T09:02:17.402Z,96.20
2019-05-26T09:04:46.415Z,96.60
2019-05-26T09:07:15.457Z,97.00
2019-05-26T09:09:44.477Z,96.10
2019-05-26T09:12:15.025Z,96.30
2019-05-26T09:14:44.022Z,94.50
2019-05-26T09:17:13.034Z,94.80
2019-05-26T09:19:42.755Z,94.80
2019-05-26T09:22:11.526Z,94.90
2019-05-26T09:24:40.242Z,94.60
2019-05-26T09:27:09.258Z,94.60
2019-05-26T09:29:37.989Z,96.90
2019-05-26T09:32:07.069Z,95.00
2019-05-26T09:34:36.073Z,94.00
2019-05-26T09:37:05.503Z,93.30
2019-05-26T09:39:34.749Z,92.80
2019-05-26T09:42:03.551Z,91.50
2019-05-26T09:44:33.331Z,91.50
2019-05-26T09:47:02.105Z,91.50
2019-05-26T09:49:31.365Z,92.10
2019-05-26T09:52:00.388Z,90.90
2019-05-26T09:54:29.941Z,91.60
2019-05-26T09:56:59.194Z,91.00
2019-05-26T09:59:28.187Z,91.40
2019-05-26T10:01:57.431Z,91.80
2019-05-26T10:04:27.030Z,89.80
2019-05-26T10:06:59.399Z,90.20
2019-05-26T10:09:28.538Z,90.00
2019-05-26T10:11:57.986Z,90.00
2019-05-26T10:14:29.033Z,90.30
2019-05-26T10:16:58.351Z,91.20
2019-05-26T10:19:27.340Z,89.70
2019-05-26T10:21:56.484Z,88.70
2019-05-26T10:24:26.045Z,90.10
2019-05-26T10:26:55.051Z,89.80
2019-05-26T10:29:24.171Z,89.60
2019-05-26T10:31:53.295Z,90.40
2019-05-26T10:34:22.363Z,90.00
2019-05-26T10:36:51.503Z,87.40
2019-05-26T10:39:21.715Z,87.10
2019-05-26T10:41:51.226Z,88.70
2019-05-26T10:44:21.215Z,87.00
2019-05-26T10:46:49.978Z,89.50
2019-05-26T10:49:19.213Z,86.20
2019-05-26T10:51:48.564Z,87.70
2019-05-26T10:54:17.410Z,87.20
2019-05-26T10:56:46.400Z,87.50
2019-05-26T10:59:16.484Z,85.90
2019-05-26T11:01:45.931Z,86.50
2019-05-26T11:04:14.723Z,85.80
2019-05-26T11:06:43.614Z,86.40
2019-05-26T11:09:12.921Z,88.40
2019-05-26T11:11:41.927Z,87.30
2019-05-26T11:14:10.972Z,86.10
2019-05-26T11:16:39.810Z,87.10
2019-05-26T11:19:09.104Z,87.60
2019-05-26T11:21:38.219Z,86.70
2019-05-26T11:24:07.626Z,86.30
2019-05-26T11:26:36.755Z,90.00
2019-05-26T11:29:06.059Z,88.00
2019-05-26T11:31:35.183Z,89.20
2019-05-26T11:34:04.494Z,89.00
2019-05-26T11:36:33.779Z,85.60
2019-05-26T11:39:04.032Z,87.70
2019-05-26T11:41:32.857Z,87.30
2019-05-26T11:44:15.328Z,85.10
2019-05-26T11:46:32.771Z,85.00
2019-05-26T11:49:01.556Z,87.70
2019-05-26T11:51:30.346Z,84.20
2019-05-26T11:53:59.773Z,84.20
2019-05-26T11:56:28.897Z,84.00
2019-05-26T11:58:57.955Z,84.70
2019-05-26T12:01:27.332Z,85.00
2019-05-26T12:03:56.431Z,83.90
2019-05-26T12:06:25.922Z,85.30
2019-05-26T12:08:55.190Z,85.70
2019-05-26T12:11:24.468Z,84.90
2019-05-26T12:13:53.467Z,85.60
2019-05-26T12:16:22.836Z,86.90
2019-05-26T12:18:51.641Z,86.90
2019-05-26T12:21:20.514Z,86.90
2019-05-26T12:23:49.818Z,87.90
2019-05-26T12:26:18.577Z,87.70
2019-05-26T12:28:48.002Z,86.50
2019-05-26T12:31:17.281Z,88.00
2019-05-26T12:33:46.746Z,87.50
2019-05-26T12:36:15.846Z,84.80
2019-05-26T12:38:52.007Z,87.20
2019-05-26T12:41:23.604Z,86.30
2019-05-26T12:43:52.615Z,88.10
2019-05-26T12:46:21.483Z,86.90
2019-05-26T12:48:50.508Z,88.60
2019-05-26T12:51:19.691Z,85.30
2019-05-26T12:53:48.698Z,83.30
2019-05-26T12:56:17.998Z,83.90
2019-05-26T12:58:48.028Z,83.50
2019-05-26T13:01:17.040Z,83.30
2019-05-26T13:03:46.072Z,83.90
2019-05-26T13:06:17.525Z,84.70
2019-05-26T13:08:46.082Z,84.70
2019-05-26T13:11:15.546Z,85.20
2019-05-26T13:13:44.823Z,82.20
2019-05-26T13:16:13.691Z,86.30
2019-05-26T13:18:42.726Z,82.50
2019-05-26T13:21:11.862Z,82.60
2019-05-26T13:23:40.975Z,80.90
2019-05-26T13:26:09.812Z,79.70
2019-05-26T13:28:39.123Z,80.00
2019-05-26T13:31:08.391Z,79.80
2019-05-26T13:33:37.491Z,78.10
2019-05-26T13:36:06.923Z,79.80
2019-05-26T13:38:35.868Z,79.90
2019-05-26T13:41:06.912Z,81.40
2019-05-26T13:43:35.683Z,79.50
2019-05-26T13:46:04.827Z,78.40
2019-05-26T13:48:33.652Z,80.60
2019-05-26T13:51:02.505Z,81.60
2019-05-26T13:53:31.286Z,81.10
2019-05-26T13:56:00.322Z,78.90
2019-05-26T13:58:29.086Z,80.10
2019-05-26T14:00:58.631Z,80.10
2019-05-26T14:03:27.479Z,79.40
2019-05-26T14:05:56.796Z,79.90
2019-05-26T14:08:25.911Z,79.30
2019-05-26T14:10:55.307Z,81.30
2019-05-26T14:13:24.567Z,79.10
2019-05-26T14:15:55.266Z,80.60
2019-05-26T14:18:25.670Z,78.40
2019-05-26T14:20:54.710Z,78.40
2019-05-26T14:23:23.508Z,78.10
2019-05-26T14:25:52.790Z,78.50
2019-05-26T14:28:22.815Z,79.60
2019-05-26T14:30:52.154Z,80.80
2019-05-26T14:33:21.154Z,78.50
2019-05-26T14:35:50.692Z,79.40
2019-05-26T14:38:19.417Z,81.90
2019-05-26T14:40:48.506Z,80.30
2019-05-26T14:43:18.209Z,79.60
2019-05-26T14:45:53.275Z,81.40
2019-05-26T14:48:18.506Z,82.90
2019-05-26T14:50:48.582Z,79.30
2019-05-26T14:53:18.067Z,80.50
2019-05-26T14:55:47.108Z,79.20
2019-05-26T14:58:16.776Z,78.40
2019-05-26T15:00:45.754Z,79.00
2019-05-26T15:03:14.842Z,80.70
2019-05-26T15:05:43.732Z,81.50
2019-05-26T15:08:13.085Z,83.90
2019-05-26T15:10:42.487Z,81.20
2019-05-26T15:13:12.602Z,80.70
2019-05-26T15:15:41.894Z,81.40
2019-05-26T15:18:11.326Z,81.70
2019-05-26T15:20:40.872Z,80.30
2019-05-26T15:23:09.662Z,81.20
2019-05-26T15:25:38.569Z,80.10
2019-05-26T15:28:07.799Z,78.30
2019-05-26T15:30:36.582Z,78.70
2019-05-26T15:33:05.720Z,78.40
2019-05-26T15:35:35.042Z,78.80
2019-05-26T15:38:04.641Z,79.80
2019-05-26T15:40:34.141Z,80.90
2019-05-26T15:43:03.873Z,81.20
2019-05-26T15:45:33.400Z,84.20
2019-05-26T15:48:02.448Z,83.10
2019-05-26T15:50:31.705Z,83.00
2019-05-26T15:53:01.025Z,84.70
2019-05-26T15:55:30.575Z,82.30
2019-05-26T15:58:00.470Z,82.90
2019-05-26T16:00:30.183Z,82.30
2019-05-26T16:02:59.597Z,82.30
2019-05-26T16:05:28.421Z,82.60
2019-05-26T16:07:57.492Z,82.20
2019-05-26T16:10:26.720Z,82.80
2019-05-26T16:12:55.912Z,83.90
2019-05-26T16:15:25.534Z,82.90
2019-05-26T16:17:54.967Z,83.40
2019-05-26T16:20:24.353Z,83.40
2019-05-26T16:22:53.787Z,83.60
2019-05-26T16:25:22.529Z,85.40
2019-05-26T16:27:51.489Z,85.70
2019-05-26T16:30:20.763Z,84.70
2019-05-26T16:32:50.084Z,84.60
2019-05-26T16:35:19.180Z,85.80
2019-05-26T16:37:48.266Z,84.70
2019-05-26T16:40:17.520Z,85.60
2019-05-26T16:42:46.515Z,85.50
2019-05-26T16:45:15.423Z,85.00
2019-05-26T16:47:44.930Z,84.70
2019-05-26T16:50:14.138Z,85.60
2019-05-26T16:52:43.000Z,85.00
2019-05-26T16:55:12.926Z,85.30
2019-05-26T16:57:41.954Z,85.70
2019-05-26T17:00:12.123Z,85.20
2019-05-26T17:02:41.097Z,85.90
2019-05-26T17:05:10.236Z,86.60
2019-05-26T17:07:39.371Z,86.60
2019-05-26T17:10:09.093Z,87.20
2019-05-26T17:12:38.105Z,87.70
2019-05-26T17:15:10.922Z,86.50
2019-05-26T17:17:39.961Z,87.20
2019-05-26T17:20:09.640Z,87.40
2019-05-26T17:22:38.702Z,87.60
2019-05-26T17:25:07.931Z,87.20
2019-05-26T17:27:37.978Z,87.60
2019-05-26T17:30:07.098Z,87.10
2019-05-26T17:32:36.019Z,87.90
2019-05-26T17:35:05.318Z,88.50
2019-05-26T17:37:34.953Z,88.00
2019-05-26T17:40:05.973Z,88.00
2019-05-26T17:42:34.965Z,88.30
2019-05-26T17:45:03.826Z,88.70
2019-05-26T17:47:32.858Z,89.30
2019-05-26T17:50:01.891Z,89.80
2019-05-26T17:52:30.994Z,90.20
2019-05-26T17:55:00.013Z,89.60
2019-05-26T17:57:29.075Z,90.00
2019-05-26T17:59:58.085Z,90.70
2019-05-26T18:02:27.302Z,90.40
2019-05-26T18:04:56.309Z,90.30
2019-05-26T18:07:25.360Z,90.50
2019-05-26T18:09:54.878Z,90.60
2019-05-26T18:12:26.042Z,90.80
2019-05-26T18:14:55.350Z,90.60
2019-05-26T18:17:24.605Z,90.90
2019-05-26T18:19:53.703Z,89.80
2019-05-26T18:22:22.729Z,89.40
2019-05-26T18:24:57.516Z,89.10
2019-05-26T18:27:22.242Z,89.70
2019-05-26T18:29:51.066Z,90.30
2019-05-26T18:32:20.053Z,90.30
2019-05-26T18:34:48.868Z,90.40
2019-05-26T18:37:17.915Z,90.00
2019-05-26T18:39:46.686Z,90.40
2019-05-26T18:42:15.694Z,90.00
2019-05-26T18:44:44.901Z,89.90
2019-05-26T18:47:14.360Z,89.60
2019-05-26T18:49:43.578Z,90.10
2019-05-26T18:52:12.838Z,89.70
2019-05-26T18:54:41.616Z,90.10
2019-05-26T18:57:10.925Z,90.30
2019-05-26T18:59:39.961Z,90.50
2019-05-26T19:02:09.503Z,90.50
2019-05-26T19:04:38.562Z,90.30
2019-05-26T19:07:07.845Z,90.40
2019-05-26T19:09:36.982Z,90.60
2019-05-26T19:12:06.303Z,90.60
2019-05-26T19:14:35.321Z,90.50
2019-05-26T19:17:05.667Z,91.00
2019-05-26T19:19:34.741Z,90.80
2019-05-26T19:22:03.823Z,91.00
2019-05-26T19:24:32.646Z,91.00
2019-05-26T19:27:01.682Z,91.00
2019-05-26T19:29:30.686Z,91.30
2019-05-26T19:31:59.871Z,91.40
2019-05-26T19:34:29.366Z,91.60
2019-05-26T19:36:58.517Z,91.50
2019-05-26T19:39:27.662Z,91.60
2019-05-26T19:41:56.658Z,91.50
2019-05-26T19:44:25.485Z,91.70
2019-05-26T19:46:54.230Z,91.70
2019-05-26T19:49:23.434Z,91.90
2019-05-26T19:51:52.702Z,91.90
2019-05-26T19:54:21.694Z,92.10
2019-05-26T19:56:50.482Z,92.30
2019-05-26T19:59:19.534Z,92.30
2019-05-26T20:01:48.823Z,92.50
2019-05-26T20:04:18.100Z,92.30
2019-05-26T20:06:47.097Z,92.10
2019-05-26T20:09:15.822Z,92.30
2019-05-26T20:11:44.878Z,92.20
2019-05-26T20:14:13.945Z,92.40
2019-05-26T20:16:42.950Z,92.60
2019-05-26T20:19:11.736Z,92.40
2019-05-26T20:21:40.481Z,92.20
2019-05-26T20:24:09.718Z,92.20
2019-05-26T20:26:38.685Z,92.40
2019-05-26T20:29:09.946Z,92.30
2019-05-26T20:31:39.255Z,92.10
2019-05-26T20:34:08.241Z,92.10
2019-05-26T20:36:37.231Z,92.10
2019-05-26T20:39:09.017Z,92.30
2019-05-26T20:41:38.268Z,92.30
2019-05-26T20:44:07.337Z,92.10
2019-05-26T20:46:36.319Z,92.50
2019-05-26T20:49:05.772Z,92.20
2019-05-26T20:51:35.714Z,92.30
2019-05-26T20:54:04.825Z,92.30
2019-05-26T20:56:34.522Z,92.00
2019-05-26T20:59:03.602Z,92.10
2019-05-26T21:01:32.891Z,92.20
2019-05-26T21:04:02.154Z,92.20
2019-05-26T21:06:30.891Z,92.50
2019-05-26T21:08:59.901Z,92.20
2019-05-26T21:11:29.426Z,92.10
2019-05-26T21:13:58.576Z,92.20
2019-05-26T21:16:27.954Z,92.10
2019-05-26T21:18:59.810Z,92.20
2019-05-26T21:21:28.798Z,92.30
2019-05-26T21:23:58.047Z,92.10
2019-05-26T21:26:27.545Z,92.50
2019-05-26T21:28:58.011Z,92.30
2019-05-26T21:31:27.016Z,92.30
2019-05-26T21:33:56.081Z,92.40
2019-05-26T21:36:27.683Z,92.60
2019-05-26T21:38:56.517Z,92.60
2019-05-26T21:41:25.278Z,92.80
2019-05-26T21:43:54.886Z,92.70
2019-05-26T21:46:23.903Z,93.00
2019-05-26T21:48:52.625Z,93.00
2019-05-26T21:51:21.376Z,93.00
2019-05-26T21:53:51.574Z,93.10
2019-05-26T21:56:20.414Z,93.30
2019-05-26T21:58:49.138Z,93.30
2019-05-26T22:01:17.965Z,93.30
2019-05-26T22:03:46.727Z,93.40
2019-05-26T22:06:19.520Z,93.50
2019-05-26T22:08:46.478Z,93.60
2019-05-26T22:11:15.703Z,93.70
2019-05-26T22:13:45.182Z,93.60
2019-05-26T22:16:13.914Z,93.70
2019-05-26T22:18:43.481Z,93.80
2019-05-26T22:21:12.543Z,93.60
2019-05-26T22:23:41.545Z,94.10
2019-05-26T22:26:10.393Z,94.20
2019-05-26T22:28:39.163Z,94.20
2019-05-26T22:31:08.185Z,94.50
2019-05-26T22:33:37.170Z,94.10
2019-05-26T22:36:06.019Z,94.10
2019-05-26T22:38:35.011Z,94.10
2019-05-26T22:41:03.991Z,94.30
2019-05-26T22:43:33.395Z,94.00
2019-05-26T22:46:02.155Z,94.10
2019-05-26T22:48:31.398Z,94.10
2019-05-26T22:51:00.590Z,94.10
2019-05-26T22:53:29.364Z,94.20
2019-05-26T22:55:58.166Z,93.90
2019-05-26T22:58:27.072Z,93.80
2019-05-26T23:00:56.151Z,93.80
2019-05-26T23:03:24.901Z,93.90
2019-05-26T23:05:53.899Z,93.60
2019-05-26T23:08:22.955Z,93.50
2019-05-26T23:10:52.151Z,93.40
2019-05-26T23:13:20.882Z,93.40
2019-05-26T23:15:50.126Z,93.60
2019-05-26T23:18:18.857Z,93.80
2019-05-26T23:20:48.309Z,93.40
2019-05-26T23:23:17.301Z,93.30
2019-05-26T23:25:46.049Z,93.30
2019-05-26T23:28:15.017Z,93.70
2019-05-26T23:30:43.842Z,93.50
2019-05-26T23:33:12.817Z,93.50
2019-05-26T23:35:41.598Z,93.60
2019-05-26T23:38:10.418Z,93.50
2019-05-26T23:40:39.398Z,93.70
2019-05-26T23:43:08.646Z,93.60
2019-05-26T23:45:37.726Z,93.80
2019-05-26T23:48:06.715Z,93.90
2019-05-26T23:50:35.456Z,94.00
2019-05-26T23:53:04.765Z,94.10
2019-05-26T23:55:33.530Z,94.10
2019-05-26T23:58:02.585Z,94.10
